sensor_id;sensor_type;location;lat;lon;timestamp;temperature;humidity
25582;DHT22;13462;50.764;4.332;2022-08-01T00:01:46;20.70;99.90
25582;DHT22;13462;50.764;4.332;2022-08-01T00:04:12;20.60;99.90
25582;DHT22;13462;50.764;4.332;2022-08-01T00:06:38;20.70;99.90
25582;DHT22;13462;50.764;4.332;2022-08-01T00:09:03;20.70;99.90
25582;DHT22;13462;50.764;4.332;2022-08-01T00:11:29;20.70;99.90
25582;DHT22;13462;50.764;4.332;2022-08-01T00:13:55;20.70;99.90
25582;DHT22;13462;50.764;4.332;2022-08-01T00:16:21;20.60;99.90
25582;DHT22;13462;50.764;4.332;2022-08-01T00:18:49;20.60;99.90
25582;DHT22;13462;50.764;4.332;2022-08-01T00:21:15;20.60;99.90
25582;DHT22;13462;50.764;4.332;2022-08-01T00:23:41;20.70;99.90
25582;DHT22;13462;50.764;4.332;2022-08-01T00:26:07;20.80;99.90
25582;DHT22;13462;50.764;4.332;2022-08-01T00:28:33;20.70;99.90
25582;DHT22;13462;50.764;4.332;2022-08-01T00:30:59;20.70;99.90
25582;DHT22;13462;50.764;4.332;2022-08-01T00:33:24;20.60;99.90
25582;DHT22;13462;50.764;4.332;2022-08-01T00:35:50;20.50;99.90
25582;DHT22;13462;50.764;4.332;2022-08-01T00:38:15;20.50;99.90
25582;DHT22;13462;50.764;4.332;2022-08-01T00:40:41;20.40;99.90
25582;DHT22;13462;50.764;4.332;2022-08-01T00:43:07;20.40;99.90
25582;DHT22;13462;50.764;4.332;2022-08-01T00:45:32;20.30;99.90
25582;DHT22;13462;50.764;4.332;2022-08-01T00:47:58;20.30;99.90
25582;DHT22;13462;50.764;4.332;2022-08-01T00:50:24;20.40;99.90
25582;DHT22;13462;50.764;4.332;2022-08-01T00:52:50;20.50;99.90
25582;DHT22;13462;50.764;4.332;2022-08-01T00:55:18;20.60;99.90
25582;DHT22;13462;50.764;4.332;2022-08-01T00:57:44;20.60;99.90
25582;DHT22;13462;50.764;4.332;2022-08-01T01:00:10;20.50;99.90
25582;DHT22;13462;50.764;4.332;2022-08-01T01:02:36;20.60;99.90
25582;DHT22;13462;50.764;4.332;2022-08-01T01:05:02;20.60;99.90
25582;DHT22;13462;50.764;4.332;2022-08-01T01:08:22;20.50;99.90
25582;DHT22;13462;50.764;4.332;2022-08-01T01:10:55;20.40;99.90
25582;DHT22;13462;50.764;4.332;2022-08-01T01:15:59;20.40;99.90
25582;DHT22;13462;50.764;4.332;2022-08-01T01:18:34;20.50;99.90
25582;DHT22;13462;50.764;4.332;2022-08-01T01:24:17;20.40;99.90
25582;DHT22;13462;50.764;4.332;2022-08-01T01:29:30;20.40;99.90
25582;DHT22;13462;50.764;4.332;2022-08-01T01:32:13;20.40;99.90
25582;DHT22;13462;50.764;4.332;2022-08-01T01:34:43;20.30;99.90
25582;DHT22;13462;50.764;4.332;2022-08-01T01:37:14;20.30;99.90
25582;DHT22;13462;50.764;4.332;2022-08-01T01:39:41;20.20;99.90
25582;DHT22;13462;50.764;4.332;2022-08-01T01:42:08;20.40;99.90
25582;DHT22;13462;50.764;4.332;2022-08-01T01:44:34;20.40;99.90
25582;DHT22;13462;50.764;4.332;2022-08-01T01:47:01;20.40;99.90
25582;DHT22;13462;50.764;4.332;2022-08-01T01:49:28;20.40;99.90
25582;DHT22;13462;50.764;4.332;2022-08-01T01:51:56;20.30;99.90
25582;DHT22;13462;50.764;4.332;2022-08-01T01:54:24;20.30;99.90
25582;DHT22;13462;50.764;4.332;2022-08-01T01:56:51;20.30;99.90
25582;DHT22;13462;50.764;4.332;2022-08-01T01:59:19;20.20;99.90
25582;DHT22;13462;50.764;4.332;2022-08-01T02:01:49;20.30;99.90
25582;DHT22;13462;50.764;4.332;2022-08-01T02:04:17;20.20;99.90
25582;DHT22;13462;50.764;4.332;2022-08-01T02:06:45;20.10;99.90
25582;DHT22;13462;50.764;4.332;2022-08-01T02:09:15;20.10;99.90
25582;DHT22;13462;50.764;4.332;2022-08-01T02:11:42;20.20;99.90
25582;DHT22;13462;50.764;4.332;2022-08-01T02:14:09;20.20;99.90
25582;DHT22;13462;50.764;4.332;2022-08-01T02:16:37;20.30;99.90
25582;DHT22;13462;50.764;4.332;2022-08-01T02:19:05;20.30;99.90
25582;DHT22;13462;50.764;4.332;2022-08-01T02:24:39;20.30;99.90
25582;DHT22;13462;50.764;4.332;2022-08-01T02:27:09;20.30;99.90
25582;DHT22;13462;50.764;4.332;2022-08-01T02:29:45;20.40;99.90
25582;DHT22;13462;50.764;4.332;2022-08-01T02:32:23;20.30;99.90
25582;DHT22;13462;50.764;4.332;2022-08-01T02:34:51;20.40;99.90
25582;DHT22;13462;50.764;4.332;2022-08-01T02:37:19;20.40;99.90
25582;DHT22;13462;50.764;4.332;2022-08-01T02:39:48;20.30;99.90
25582;DHT22;13462;50.764;4.332;2022-08-01T02:42:18;20.10;99.90
25582;DHT22;13462;50.764;4.332;2022-08-01T02:44:46;20.10;99.90
25582;DHT22;13462;50.764;4.332;2022-08-01T02:47:14;20.10;99.90
25582;DHT22;13462;50.764;4.332;2022-08-01T02:49:45;20.10;99.90
25582;DHT22;13462;50.764;4.332;2022-08-01T02:52:16;20.10;99.90
25582;DHT22;13462;50.764;4.332;2022-08-01T02:54:45;20.10;99.90
25582;DHT22;13462;50.764;4.332;2022-08-01T02:57:12;20.00;99.90
25582;DHT22;13462;50.764;4.332;2022-08-01T02:59:40;20.00;99.90
25582;DHT22;13462;50.764;4.332;2022-08-01T03:02:07;20.00;99.90
25582;DHT22;13462;50.764;4.332;2022-08-01T03:04:35;19.90;99.90
25582;DHT22;13462;50.764;4.332;2022-08-01T03:07:03;20.00;99.90
25582;DHT22;13462;50.764;4.332;2022-08-01T03:09:31;20.00;99.90
25582;DHT22;13462;50.764;4.332;2022-08-01T03:12:00;20.00;99.90
25582;DHT22;13462;50.764;4.332;2022-08-01T03:14:27;20.00;99.90
25582;DHT22;13462;50.764;4.332;2022-08-01T03:16:54;20.00;99.90
25582;DHT22;13462;50.764;4.332;2022-08-01T03:19:23;19.90;99.90
25582;DHT22;13462;50.764;4.332;2022-08-01T03:21:49;20.00;99.90
25582;DHT22;13462;50.764;4.332;2022-08-01T03:24:16;20.00;99.90
25582;DHT22;13462;50.764;4.332;2022-08-01T03:26:43;20.00;99.90
25582;DHT22;13462;50.764;4.332;2022-08-01T03:29:17;19.80;99.90
25582;DHT22;13462;50.764;4.332;2022-08-01T03:31:45;19.80;99.90
25582;DHT22;13462;50.764;4.332;2022-08-01T03:34:11;19.80;99.90
25582;DHT22;13462;50.764;4.332;2022-08-01T03:36:46;19.70;99.90
25582;DHT22;13462;50.764;4.332;2022-08-01T03:39:14;19.80;99.90
25582;DHT22;13462;50.764;4.332;2022-08-01T03:41:45;19.80;99.90
25582;DHT22;13462;50.764;4.332;2022-08-01T03:44:17;19.90;99.90
25582;DHT22;13462;50.764;4.332;2022-08-01T03:46:54;19.80;99.90
25582;DHT22;13462;50.764;4.332;2022-08-01T03:49:26;19.70;99.90
25582;DHT22;13462;50.764;4.332;2022-08-01T03:51:54;19.70;99.90
25582;DHT22;13462;50.764;4.332;2022-08-01T03:54:24;19.70;99.90
25582;DHT22;13462;50.764;4.332;2022-08-01T03:56:51;19.70;99.90
25582;DHT22;13462;50.764;4.332;2022-08-01T03:59:17;19.70;99.90
25582;DHT22;13462;50.764;4.332;2022-08-01T04:01:45;19.60;99.90
25582;DHT22;13462;50.764;4.332;2022-08-01T04:04:11;19.30;99.90
25582;DHT22;13462;50.764;4.332;2022-08-01T04:06:38;19.20;99.90
25582;DHT22;13462;50.764;4.332;2022-08-01T04:09:04;19.10;99.90
25582;DHT22;13462;50.764;4.332;2022-08-01T04:11:29;19.10;99.90
25582;DHT22;13462;50.764;4.332;2022-08-01T04:13:55;19.10;99.90
25582;DHT22;13462;50.764;4.332;2022-08-01T04:16:22;19.20;99.90
25582;DHT22;13462;50.764;4.332;2022-08-01T04:18:47;19.20;99.90
25582;DHT22;13462;50.764;4.332;2022-08-01T04:21:14;19.20;99.90
25582;DHT22;13462;50.764;4.332;2022-08-01T04:23:44;19.20;99.90
25582;DHT22;13462;50.764;4.332;2022-08-01T04:26:12;19.10;99.90
25582;DHT22;13462;50.764;4.332;2022-08-01T04:28:39;19.20;99.90
25582;DHT22;13462;50.764;4.332;2022-08-01T04:31:08;19.40;99.90
25582;DHT22;13462;50.764;4.332;2022-08-01T04:33:43;19.40;99.90
25582;DHT22;13462;50.764;4.332;2022-08-01T04:36:12;19.30;99.90
25582;DHT22;13462;50.764;4.332;2022-08-01T04:38:40;19.30;99.90
25582;DHT22;13462;50.764;4.332;2022-08-01T04:41:09;19.20;99.90
25582;DHT22;13462;50.764;4.332;2022-08-01T04:43:39;19.30;99.90
25582;DHT22;13462;50.764;4.332;2022-08-01T04:46:07;19.40;99.90
25582;DHT22;13462;50.764;4.332;2022-08-01T04:48:36;19.40;99.90
25582;DHT22;13462;50.764;4.332;2022-08-01T04:51:02;19.40;99.90
25582;DHT22;13462;50.764;4.332;2022-08-01T04:53:27;19.40;99.90
25582;DHT22;13462;50.764;4.332;2022-08-01T04:55:53;19.40;99.90
25582;DHT22;13462;50.764;4.332;2022-08-01T04:58:19;19.40;99.90
25582;DHT22;13462;50.764;4.332;2022-08-01T05:00:45;19.40;99.90
25582;DHT22;13462;50.764;4.332;2022-08-01T05:03:11;19.60;99.90
25582;DHT22;13462;50.764;4.332;2022-08-01T05:05:36;19.40;99.90
25582;DHT22;13462;50.764;4.332;2022-08-01T05:08:02;19.40;99.90
25582;DHT22;13462;50.764;4.332;2022-08-01T05:10:27;19.40;99.90
25582;DHT22;13462;50.764;4.332;2022-08-01T05:12:53;19.50;99.90
25582;DHT22;13462;50.764;4.332;2022-08-01T05:15:19;19.60;99.90
25582;DHT22;13462;50.764;4.332;2022-08-01T05:17:45;19.60;99.90
25582;DHT22;13462;50.764;4.332;2022-08-01T05:20:12;19.70;99.90
25582;DHT22;13462;50.764;4.332;2022-08-01T05:22:38;19.70;99.90
25582;DHT22;13462;50.764;4.332;2022-08-01T05:25:04;19.70;99.90
25582;DHT22;13462;50.764;4.332;2022-08-01T05:27:31;19.60;99.90
25582;DHT22;13462;50.764;4.332;2022-08-01T05:29:57;19.70;99.90
25582;DHT22;13462;50.764;4.332;2022-08-01T05:32:22;19.80;99.90
25582;DHT22;13462;50.764;4.332;2022-08-01T05:34:48;19.80;99.90
25582;DHT22;13462;50.764;4.332;2022-08-01T05:37:14;19.90;99.90
25582;DHT22;13462;50.764;4.332;2022-08-01T05:39:40;19.90;99.90
25582;DHT22;13462;50.764;4.332;2022-08-01T05:42:06;19.90;99.90
25582;DHT22;13462;50.764;4.332;2022-08-01T05:44:31;20.00;99.90
25582;DHT22;13462;50.764;4.332;2022-08-01T05:46:57;20.00;99.90
25582;DHT22;13462;50.764;4.332;2022-08-01T05:49:22;20.00;99.90
25582;DHT22;13462;50.764;4.332;2022-08-01T05:51:48;20.20;99.90
25582;DHT22;13462;50.764;4.332;2022-08-01T05:54:14;20.20;99.90
25582;DHT22;13462;50.764;4.332;2022-08-01T05:56:40;20.20;99.90
25582;DHT22;13462;50.764;4.332;2022-08-01T05:59:05;20.30;99.90
25582;DHT22;13462;50.764;4.332;2022-08-01T06:01:32;20.50;99.90
25582;DHT22;13462;50.764;4.332;2022-08-01T06:03:57;20.60;99.90
25582;DHT22;13462;50.764;4.332;2022-08-01T06:06:23;20.70;99.90
25582;DHT22;13462;50.764;4.332;2022-08-01T06:08:49;20.60;99.90
25582;DHT22;13462;50.764;4.332;2022-08-01T06:11:14;20.30;99.90
25582;DHT22;13462;50.764;4.332;2022-08-01T06:13:40;20.20;99.90
25582;DHT22;13462;50.764;4.332;2022-08-01T06:16:06;20.40;99.90
25582;DHT22;13462;50.764;4.332;2022-08-01T06:18:31;20.40;99.90
25582;DHT22;13462;50.764;4.332;2022-08-01T06:20:57;20.50;99.90
25582;DHT22;13462;50.764;4.332;2022-08-01T06:23:23;20.50;99.90
25582;DHT22;13462;50.764;4.332;2022-08-01T06:25:51;20.50;99.90
25582;DHT22;13462;50.764;4.332;2022-08-01T06:28:17;20.60;99.90
25582;DHT22;13462;50.764;4.332;2022-08-01T06:30:42;20.50;99.90
25582;DHT22;13462;50.764;4.332;2022-08-01T06:33:08;20.50;99.90
25582;DHT22;13462;50.764;4.332;2022-08-01T06:35:34;20.50;99.90
25582;DHT22;13462;50.764;4.332;2022-08-01T06:38:00;20.50;99.90
25582;DHT22;13462;50.764;4.332;2022-08-01T06:40:26;20.60;99.90
25582;DHT22;13462;50.764;4.332;2022-08-01T06:42:52;20.60;99.90
25582;DHT22;13462;50.764;4.332;2022-08-01T06:45:18;20.80;99.90
25582;DHT22;13462;50.764;4.332;2022-08-01T06:47:44;21.00;99.90
25582;DHT22;13462;50.764;4.332;2022-08-01T06:50:11;21.30;99.90
25582;DHT22;13462;50.764;4.332;2022-08-01T06:52:37;21.50;99.90
25582;DHT22;13462;50.764;4.332;2022-08-01T06:55:03;21.70;99.90
25582;DHT22;13462;50.764;4.332;2022-08-01T06:57:29;22.00;99.90
25582;DHT22;13462;50.764;4.332;2022-08-01T06:59:55;22.00;99.90
25582;DHT22;13462;50.764;4.332;2022-08-01T07:02:21;22.20;99.90
25582;DHT22;13462;50.764;4.332;2022-08-01T07:04:46;22.20;99.90
25582;DHT22;13462;50.764;4.332;2022-08-01T07:07:12;22.00;99.90
25582;DHT22;13462;50.764;4.332;2022-08-01T07:09:38;22.20;99.90
25582;DHT22;13462;50.764;4.332;2022-08-01T07:12:06;22.40;99.90
25582;DHT22;13462;50.764;4.332;2022-08-01T07:14:32;22.60;99.90
25582;DHT22;13462;50.764;4.332;2022-08-01T07:16:58;22.70;99.90
25582;DHT22;13462;50.764;4.332;2022-08-01T07:19:23;22.80;99.90
25582;DHT22;13462;50.764;4.332;2022-08-01T07:21:49;23.30;99.90
25582;DHT22;13462;50.764;4.332;2022-08-01T07:24:15;24.50;99.90
25582;DHT22;13462;50.764;4.332;2022-08-01T07:26:47;24.80;99.90
25582;DHT22;13462;50.764;4.332;2022-08-01T07:29:12;25.10;99.90
25582;DHT22;13462;50.764;4.332;2022-08-01T07:31:39;25.30;99.90
25582;DHT22;13462;50.764;4.332;2022-08-01T07:34:05;25.30;99.90
25582;DHT22;13462;50.764;4.332;2022-08-01T07:36:30;25.30;99.90
25582;DHT22;13462;50.764;4.332;2022-08-01T07:38:56;25.40;99.90
25582;DHT22;13462;50.764;4.332;2022-08-01T07:41:22;25.20;99.90
25582;DHT22;13462;50.764;4.332;2022-08-01T07:43:48;25.20;99.90
25582;DHT22;13462;50.764;4.332;2022-08-01T07:46:14;25.20;99.90
25582;DHT22;13462;50.764;4.332;2022-08-01T07:48:40;25.20;99.90
25582;DHT22;13462;50.764;4.332;2022-08-01T07:51:06;25.10;99.90
25582;DHT22;13462;50.764;4.332;2022-08-01T07:53:31;25.20;99.90
25582;DHT22;13462;50.764;4.332;2022-08-01T07:55:57;25.40;99.90
25582;DHT22;13462;50.764;4.332;2022-08-01T07:58:24;25.40;99.90
25582;DHT22;13462;50.764;4.332;2022-08-01T08:00:49;25.40;99.90
25582;DHT22;13462;50.764;4.332;2022-08-01T08:03:15;25.90;99.90
25582;DHT22;13462;50.764;4.332;2022-08-01T08:05:40;26.50;99.90
25582;DHT22;13462;50.764;4.332;2022-08-01T08:08:07;26.60;99.90
25582;DHT22;13462;50.764;4.332;2022-08-01T08:10:33;26.30;99.90
25582;DHT22;13462;50.764;4.332;2022-08-01T08:13:00;26.00;99.90
25582;DHT22;13462;50.764;4.332;2022-08-01T08:15:29;26.20;99.90
25582;DHT22;13462;50.764;4.332;2022-08-01T08:17:55;27.00;99.90
25582;DHT22;13462;50.764;4.332;2022-08-01T08:20:20;28.30;99.90
25582;DHT22;13462;50.764;4.332;2022-08-01T08:22:55;29.00;99.90
25582;DHT22;13462;50.764;4.332;2022-08-01T08:25:21;28.80;99.40
25582;DHT22;13462;50.764;4.332;2022-08-01T08:27:47;28.70;99.00
25582;DHT22;13462;50.764;4.332;2022-08-01T08:30:13;29.30;97.10
25582;DHT22;13462;50.764;4.332;2022-08-01T08:32:39;29.40;97.10
25582;DHT22;13462;50.764;4.332;2022-08-01T08:35:06;29.40;95.80
25582;DHT22;13462;50.764;4.332;2022-08-01T08:37:33;29.80;97.10
25582;DHT22;13462;50.764;4.332;2022-08-01T08:39:59;31.50;94.60
25582;DHT22;13462;50.764;4.332;2022-08-01T08:42:25;32.20;91.10
25582;DHT22;13462;50.764;4.332;2022-08-01T08:44:51;31.50;90.40
25582;DHT22;13462;50.764;4.332;2022-08-01T08:47:19;30.50;91.00
25582;DHT22;13462;50.764;4.332;2022-08-01T08:49:47;29.90;92.60
25582;DHT22;13462;50.764;4.332;2022-08-01T08:52:14;29.70;93.10
25582;DHT22;13462;50.764;4.332;2022-08-01T08:54:41;29.40;93.70
25582;DHT22;13462;50.764;4.332;2022-08-01T08:57:07;28.60;93.90
25582;DHT22;13462;50.764;4.332;2022-08-01T08:59:36;28.30;94.40
25582;DHT22;13462;50.764;4.332;2022-08-01T09:02:02;28.20;94.70
25582;DHT22;13462;50.764;4.332;2022-08-01T09:04:30;28.40;95.30
25582;DHT22;13462;50.764;4.332;2022-08-01T09:06:56;28.40;94.70
25582;DHT22;13462;50.764;4.332;2022-08-01T09:09:22;29.10;95.30
25582;DHT22;13462;50.764;4.332;2022-08-01T09:11:48;29.60;94.80
25582;DHT22;13462;50.764;4.332;2022-08-01T09:14:16;29.60;93.70
25582;DHT22;13462;50.764;4.332;2022-08-01T09:17:07;29.70;93.70
25582;DHT22;13462;50.764;4.332;2022-08-01T09:19:35;30.30;91.70
25582;DHT22;13462;50.764;4.332;2022-08-01T09:22:05;31.70;91.10
25582;DHT22;13462;50.764;4.332;2022-08-01T09:24:31;33.20;89.80
25582;DHT22;13462;50.764;4.332;2022-08-01T09:26:58;34.50;80.80
25582;DHT22;13462;50.764;4.332;2022-08-01T09:29:27;35.30;77.80
25582;DHT22;13462;50.764;4.332;2022-08-01T09:31:53;35.80;73.90
25582;DHT22;13462;50.764;4.332;2022-08-01T09:34:29;35.60;73.30
25582;DHT22;13462;50.764;4.332;2022-08-01T09:37:00;36.10;71.60
25582;DHT22;13462;50.764;4.332;2022-08-01T09:39:31;35.30;72.10
25582;DHT22;13462;50.764;4.332;2022-08-01T09:41:59;35.90;71.70
25582;DHT22;13462;50.764;4.332;2022-08-01T09:44:42;35.70;70.90
25582;DHT22;13462;50.764;4.332;2022-08-01T09:47:09;36.70;68.40
25582;DHT22;13462;50.764;4.332;2022-08-01T09:49:36;36.60;67.10
25582;DHT22;13462;50.764;4.332;2022-08-01T09:52:19;35.50;68.40
25582;DHT22;13462;50.764;4.332;2022-08-01T09:57:22;35.80;67.00
25582;DHT22;13462;50.764;4.332;2022-08-01T09:59:50;34.70;68.20
25582;DHT22;13462;50.764;4.332;2022-08-01T10:02:46;34.00;68.30
25582;DHT22;13462;50.764;4.332;2022-08-01T10:05:11;33.70;71.00
25582;DHT22;13462;50.764;4.332;2022-08-01T10:07:56;32.50;72.10
25582;DHT22;13462;50.764;4.332;2022-08-01T10:10:22;31.70;75.60
25582;DHT22;13462;50.764;4.332;2022-08-01T10:12:47;31.00;75.80
25582;DHT22;13462;50.764;4.332;2022-08-01T10:15:16;30.20;80.30
25582;DHT22;13462;50.764;4.332;2022-08-01T10:17:55;30.30;81.80
25582;DHT22;13462;50.764;4.332;2022-08-01T10:20:24;30.30;82.10
25582;DHT22;13462;50.764;4.332;2022-08-01T10:22:52;30.00;85.00
25582;DHT22;13462;50.764;4.332;2022-08-01T10:25:20;29.00;84.30
25582;DHT22;13462;50.764;4.332;2022-08-01T10:27:49;28.40;86.00
25582;DHT22;13462;50.764;4.332;2022-08-01T10:30:15;28.90;88.10
25582;DHT22;13462;50.764;4.332;2022-08-01T10:32:41;29.40;86.30
25582;DHT22;13462;50.764;4.332;2022-08-01T10:35:08;29.00;84.30
25582;DHT22;13462;50.764;4.332;2022-08-01T10:37:34;28.90;87.40
25582;DHT22;13462;50.764;4.332;2022-08-01T10:40:03;29.40;83.40
25582;DHT22;13462;50.764;4.332;2022-08-01T10:42:31;29.60;87.10
25582;DHT22;13462;50.764;4.332;2022-08-01T10:44:58;29.30;83.90
25582;DHT22;13462;50.764;4.332;2022-08-01T10:47:29;28.40;87.80
25582;DHT22;13462;50.764;4.332;2022-08-01T10:50:07;28.70;86.70
25582;DHT22;13462;50.764;4.332;2022-08-01T10:52:33;28.40;87.90
25582;DHT22;13462;50.764;4.332;2022-08-01T10:55:06;29.00;86.70
25582;DHT22;13462;50.764;4.332;2022-08-01T10:57:44;29.50;84.50
25582;DHT22;13462;50.764;4.332;2022-08-01T11:00:17;30.50;83.80
25582;DHT22;13462;50.764;4.332;2022-08-01T11:03:00;31.70;81.40
25582;DHT22;13462;50.764;4.332;2022-08-01T11:05:29;32.10;77.30
25582;DHT22;13462;50.764;4.332;2022-08-01T11:08:00;32.00;77.00
25582;DHT22;13462;50.764;4.332;2022-08-01T11:10:41;31.30;78.40
25582;DHT22;13462;50.764;4.332;2022-08-01T11:13:10;30.60;81.70
25582;DHT22;13462;50.764;4.332;2022-08-01T11:15:40;30.70;81.00
25582;DHT22;13462;50.764;4.332;2022-08-01T11:18:29;31.10;80.00
25582;DHT22;13462;50.764;4.332;2022-08-01T11:20:58;31.70;78.40
25582;DHT22;13462;50.764;4.332;2022-08-01T11:23:25;32.80;74.60
25582;DHT22;13462;50.764;4.332;2022-08-01T11:28:26;32.30;75.90
25582;DHT22;13462;50.764;4.332;2022-08-01T11:31:37;31.10;78.20
25582;DHT22;13462;50.764;4.332;2022-08-01T11:38:42;32.80;72.90
25582;DHT22;13462;50.764;4.332;2022-08-01T11:41:16;33.50;75.20
25582;DHT22;13462;50.764;4.332;2022-08-01T11:44:01;34.20;70.50
25582;DHT22;13462;50.764;4.332;2022-08-01T11:52:11;33.40;73.40
25582;DHT22;13462;50.764;4.332;2022-08-01T11:57:10;34.60;67.50
25582;DHT22;13462;50.764;4.332;2022-08-01T11:59:48;35.00;68.00
25582;DHT22;13462;50.764;4.332;2022-08-01T12:02:34;34.10;70.40
25582;DHT22;13462;50.764;4.332;2022-08-01T12:07:32;35.00;67.70
25582;DHT22;13462;50.764;4.332;2022-08-01T12:10:06;35.40;66.00
25582;DHT22;13462;50.764;4.332;2022-08-01T12:12:33;35.80;66.00
25582;DHT22;13462;50.764;4.332;2022-08-01T12:15:02;36.10;64.40
25582;DHT22;13462;50.764;4.332;2022-08-01T12:17:39;35.90;64.70
25582;DHT22;13462;50.764;4.332;2022-08-01T12:20:10;35.40;63.40
25582;DHT22;13462;50.764;4.332;2022-08-01T12:22:37;34.20;65.80
25582;DHT22;13462;50.764;4.332;2022-08-01T12:25:16;33.60;68.10
25582;DHT22;13462;50.764;4.332;2022-08-01T12:27:44;33.80;68.30
25582;DHT22;13462;50.764;4.332;2022-08-01T12:30:13;34.60;65.00
25582;DHT22;13462;50.764;4.332;2022-08-01T12:32:41;34.60;63.90
25582;DHT22;13462;50.764;4.332;2022-08-01T12:35:11;34.10;65.90
25582;DHT22;13462;50.764;4.332;2022-08-01T12:37:45;34.50;66.30
25582;DHT22;13462;50.764;4.332;2022-08-01T12:42:41;34.60;64.20
25582;DHT22;13462;50.764;4.332;2022-08-01T12:45:09;35.20;63.70
25582;DHT22;13462;50.764;4.332;2022-08-01T12:47:36;35.50;62.70
25582;DHT22;13462;50.764;4.332;2022-08-01T12:50:05;36.00;60.60
25582;DHT22;13462;50.764;4.332;2022-08-01T12:52:31;35.10;61.30
25582;DHT22;13462;50.764;4.332;2022-08-01T12:55:06;34.90;62.50
25582;DHT22;13462;50.764;4.332;2022-08-01T12:57:34;35.00;64.00
25582;DHT22;13462;50.764;4.332;2022-08-01T13:00:13;35.10;64.40
25582;DHT22;13462;50.764;4.332;2022-08-01T13:02:40;34.50;64.70
25582;DHT22;13462;50.764;4.332;2022-08-01T13:05:07;35.20;63.10
25582;DHT22;13462;50.764;4.332;2022-08-01T13:07:39;35.90;60.40
25582;DHT22;13462;50.764;4.332;2022-08-01T13:10:06;35.70;59.80
25582;DHT22;13462;50.764;4.332;2022-08-01T13:12:32;34.70;62.60
25582;DHT22;13462;50.764;4.332;2022-08-01T13:14:58;34.50;61.90
25582;DHT22;13462;50.764;4.332;2022-08-01T13:17:33;33.60;64.60
25582;DHT22;13462;50.764;4.332;2022-08-01T13:20:04;34.30;64.30
25582;DHT22;13462;50.764;4.332;2022-08-01T13:22:34;35.20;62.30
25582;DHT22;13462;50.764;4.332;2022-08-01T13:25:13;35.00;62.20
25582;DHT22;13462;50.764;4.332;2022-08-01T13:27:40;34.10;63.10
25582;DHT22;13462;50.764;4.332;2022-08-01T13:30:19;33.40;65.90
25582;DHT22;13462;50.764;4.332;2022-08-01T13:33:05;32.90;64.50
25582;DHT22;13462;50.764;4.332;2022-08-01T13:35:30;32.40;67.30
25582;DHT22;13462;50.764;4.332;2022-08-01T13:37:56;32.10;69.00
25582;DHT22;13462;50.764;4.332;2022-08-01T13:40:27;31.70;68.80
25582;DHT22;13462;50.764;4.332;2022-08-01T13:42:54;31.20;70.50
25582;DHT22;13462;50.764;4.332;2022-08-01T13:45:22;30.80;71.40
25582;DHT22;13462;50.764;4.332;2022-08-01T13:47:47;30.70;70.70
25582;DHT22;13462;50.764;4.332;2022-08-01T13:50:13;30.50;73.50
25582;DHT22;13462;50.764;4.332;2022-08-01T13:52:38;30.20;73.60
25582;DHT22;13462;50.764;4.332;2022-08-01T13:55:04;30.30;71.50
25582;DHT22;13462;50.764;4.332;2022-08-01T13:57:30;30.40;72.70
25582;DHT22;13462;50.764;4.332;2022-08-01T13:59:56;30.30;73.30
25582;DHT22;13462;50.764;4.332;2022-08-01T14:02:28;30.20;72.80
25582;DHT22;13462;50.764;4.332;2022-08-01T14:04:54;30.30;73.10
25582;DHT22;13462;50.764;4.332;2022-08-01T14:07:21;29.70;72.80
25582;DHT22;13462;50.764;4.332;2022-08-01T14:09:46;29.10;74.90
25582;DHT22;13462;50.764;4.332;2022-08-01T14:12:12;29.00;75.70
25582;DHT22;13462;50.764;4.332;2022-08-01T14:14:38;29.10;75.50
25582;DHT22;13462;50.764;4.332;2022-08-01T14:17:04;29.10;74.20
25582;DHT22;13462;50.764;4.332;2022-08-01T14:19:30;28.90;76.40
25582;DHT22;13462;50.764;4.332;2022-08-01T14:21:56;28.90;76.60
25582;DHT22;13462;50.764;4.332;2022-08-01T14:24:23;28.90;75.00
25582;DHT22;13462;50.764;4.332;2022-08-01T14:26:49;28.90;77.50
25582;DHT22;13462;50.764;4.332;2022-08-01T14:29:14;29.10;75.00
25582;DHT22;13462;50.764;4.332;2022-08-01T14:31:40;29.30;75.00
25582;DHT22;13462;50.764;4.332;2022-08-01T14:34:06;29.80;74.80
25582;DHT22;13462;50.764;4.332;2022-08-01T14:36:31;30.40;74.50
25582;DHT22;13462;50.764;4.332;2022-08-01T14:38:58;30.80;71.20
25582;DHT22;13462;50.764;4.332;2022-08-01T14:41:23;30.80;70.20
25582;DHT22;13462;50.764;4.332;2022-08-01T14:43:49;30.50;69.90
25582;DHT22;13462;50.764;4.332;2022-08-01T14:46:15;30.50;71.50
25582;DHT22;13462;50.764;4.332;2022-08-01T14:48:40;30.30;72.50
25582;DHT22;13462;50.764;4.332;2022-08-01T14:51:06;30.10;72.60
25582;DHT22;13462;50.764;4.332;2022-08-01T14:53:33;29.70;72.60
25582;DHT22;13462;50.764;4.332;2022-08-01T14:56:00;29.50;72.10
25582;DHT22;13462;50.764;4.332;2022-08-01T14:58:26;29.60;73.70
25582;DHT22;13462;50.764;4.332;2022-08-01T15:00:51;29.80;72.40
25582;DHT22;13462;50.764;4.332;2022-08-01T15:03:20;30.10;71.50
25582;DHT22;13462;50.764;4.332;2022-08-01T15:05:46;30.10;71.80
25582;DHT22;13462;50.764;4.332;2022-08-01T15:08:11;30.40;70.90
25582;DHT22;13462;50.764;4.332;2022-08-01T15:10:37;30.30;71.50
25582;DHT22;13462;50.764;4.332;2022-08-01T15:13:03;30.00;69.70
25582;DHT22;13462;50.764;4.332;2022-08-01T15:15:29;29.70;74.80
25582;DHT22;13462;50.764;4.332;2022-08-01T15:17:55;29.60;72.10
25582;DHT22;13462;50.764;4.332;2022-08-01T15:20:21;29.40;74.80
25582;DHT22;13462;50.764;4.332;2022-08-01T15:22:46;29.60;74.80
25582;DHT22;13462;50.764;4.332;2022-08-01T15:25:13;29.70;74.90
25582;DHT22;13462;50.764;4.332;2022-08-01T15:27:38;30.10;72.70
25582;DHT22;13462;50.764;4.332;2022-08-01T15:30:05;30.30;71.50
25582;DHT22;13462;50.764;4.332;2022-08-01T15:32:30;30.30;71.60
25582;DHT22;13462;50.764;4.332;2022-08-01T15:34:56;30.50;72.30
25582;DHT22;13462;50.764;4.332;2022-08-01T15:37:22;30.60;72.80
25582;DHT22;13462;50.764;4.332;2022-08-01T15:39:47;30.50;68.40
25582;DHT22;13462;50.764;4.332;2022-08-01T15:42:14;30.20;70.00
25582;DHT22;13462;50.764;4.332;2022-08-01T15:44:41;30.10;70.90
25582;DHT22;13462;50.764;4.332;2022-08-01T15:47:07;30.10;70.60
25582;DHT22;13462;50.764;4.332;2022-08-01T15:49:33;30.00;72.90
25582;DHT22;13462;50.764;4.332;2022-08-01T15:52:02;30.10;71.70
25582;DHT22;13462;50.764;4.332;2022-08-01T15:54:27;29.70;70.10
25582;DHT22;13462;50.764;4.332;2022-08-01T15:56:53;29.60;70.70
25582;DHT22;13462;50.764;4.332;2022-08-01T15:59:19;29.60;74.30
25582;DHT22;13462;50.764;4.332;2022-08-01T16:01:44;29.70;70.40
25582;DHT22;13462;50.764;4.332;2022-08-01T16:04:10;29.60;72.30
25582;DHT22;13462;50.764;4.332;2022-08-01T16:06:36;29.70;70.10
25582;DHT22;13462;50.764;4.332;2022-08-01T16:09:05;29.70;70.30
25582;DHT22;13462;50.764;4.332;2022-08-01T16:11:31;29.60;72.90